Time;durP1;ratioP1;P1;durP2;ratioP2;P2;SDS_P1;SDS_P2;PMS_P1;PMS_P2;Temp;Humidity;BMP_temperature;BMP_pressure;BME280_temperature;BME280_humidity;BME280_pressure;Samples;Min_cycle;Max_cycle;Signal;HPM_P1;HPM_P2
2023/01/01 00:00:31;;;;;;;1999.90;999.90;;;;;;;;;;4979709;28;20074;-82
2023/01/01 00:02:58;;;;;;;1999.90;999.90;;;;;;;;;;4983140;28;20121;-82
2023/01/01 00:05:27;;;;;;;1999.90;999.90;;;;;;;;;;4982958;28;20070;-82
2023/01/01 00:07:54;;;;;;;1999.90;999.90;;;;;;;;;;4980573;28;20061;-82
2023/01/01 00:10:27;;;;;;;1999.90;999.90;;;;;;;;;;4980191;28;20093;-82
2023/01/01 00:12:53;;;;;;;1999.90;999.90;;;;;;;;;;4986733;28;20609;-82
2023/01/01 00:15:20;;;;;;;1999.90;999.90;;;;;;;;;;4983858;28;20502;-83
2023/01/01 00:17:47;;;;;;;1999.90;999.90;;;;;;;;;;4984104;28;20125;-82
2023/01/01 00:20:17;;;;;;;1999.90;999.90;;;;;;;;;;4986229;28;20077;-82
2023/01/01 00:22:44;;;;;;;1999.90;999.90;;;;;;;;;;4978803;28;20135;-82
2023/01/01 00:25:12;;;;;;;1999.90;999.90;;;;;;;;;;4980250;28;20090;-82
2023/01/01 00:27:45;;;;;;;1999.90;999.90;;;;;;;;;;4985791;28;20042;-82
2023/01/01 00:30:14;;;;;;;1999.90;999.90;;;;;;;;;;4982862;28;20054;-82
2023/01/01 00:32:42;;;;;;;1999.90;999.90;;;;;;;;;;4988154;28;20402;-82
2023/01/01 00:35:09;;;;;;;1999.90;999.90;;;;;;;;;;4978810;28;20078;-82
2023/01/01 00:37:36;;;;;;;1999.90;999.90;;;;;;;;;;4984149;28;20434;-83
2023/01/01 00:40:03;;;;;;;1999.90;999.90;;;;;;;;;;4989145;28;20132;-82
2023/01/01 00:42:30;;;;;;;1999.90;999.90;;;;;;;;;;4986715;28;20074;-83
2023/01/01 00:44:58;;;;;;;1999.90;999.90;;;;;;;;;;4985900;28;20120;-83
2023/01/01 00:47:24;;;;;;;1999.90;999.90;;;;;;;;;;4986750;28;20078;-82
2023/01/01 00:49:51;;;;;;;1999.90;999.90;;;;;;;;;;4986626;28;20074;-83
2023/01/01 00:52:18;;;;;;;1999.90;999.90;;;;;;;;;;4983897;28;20556;-83
2023/01/01 00:54:45;;;;;;;1999.90;999.90;;;;;;;;;;5005854;28;20050;-82
2023/01/01 00:57:12;;;;;;;1999.90;999.90;;;;;;;;;;4990448;28;20121;-82
2023/01/01 00:59:39;;;;;;;1999.90;999.90;;;;;;;;;;4987087;28;20089;-83
2023/01/01 01:02:16;;;;;;;1999.90;999.90;;;;;;;;;;4985365;28;20070;-82
2023/01/01 01:04:42;;;;;;;1999.90;999.90;;;;;;;;;;4986806;28;20050;-83
2023/01/01 01:07:09;;;;;;;1999.90;999.90;;;;;;;;;;4980783;28;20433;-82
2023/01/01 01:09:36;;;;;;;1999.90;999.90;;;;;;;;;;4985106;28;20673;-83
2023/01/01 01:12:02;;;;;;;1999.90;999.90;;;;;;;;;;4996862;28;20054;-83
2023/01/01 01:14:29;;;;;;;1999.90;999.90;;;;;;;;;;4987899;28;20047;-82
2023/01/01 01:16:55;;;;;;;1999.90;999.90;;;;;;;;;;4984259;28;20541;-83
2023/01/01 01:19:24;;;;;;;1999.90;999.90;;;;;;;;;;4985828;28;20074;-83
2023/01/01 01:21:51;;;;;;;1999.90;999.90;;;;;;;;;;4982349;28;20102;-82
2023/01/01 01:24:18;;;;;;;1999.90;999.90;;;;;;;;;;4984998;28;20054;-83
2023/01/01 01:26:45;;;;;;;1999.90;999.90;;;;;;;;;;4985817;28;20085;-82
2023/01/01 01:29:11;;;;;;;1999.90;999.90;;;;;;;;;;4987254;28;20082;-82
2023/01/01 01:31:38;;;;;;;1999.90;999.90;;;;;;;;;;4986414;28;20141;-83
2023/01/01 01:34:04;;;;;;;1999.90;999.90;;;;;;;;;;4982682;28;20147;-82
2023/01/01 01:36:32;;;;;;;1999.90;999.90;;;;;;;;;;4986882;28;20074;-82
2023/01/01 01:38:59;;;;;;;1999.90;999.90;;;;;;;;;;4986042;28;20089;-82
2023/01/01 01:41:26;;;;;;;1999.90;999.90;;;;;;;;;;4986135;28;20073;-82
2023/01/01 01:43:55;;;;;;;1999.90;999.90;;;;;;;;;;4988186;28;20058;-83
2023/01/01 01:46:26;;;;;;;1999.90;999.90;;;;;;;;;;4984431;28;20051;-83
2023/01/01 01:48:55;;;;;;;1999.90;999.90;;;;;;;;;;4984003;28;20094;-82
2023/01/01 01:51:26;;;;;;;1999.90;999.90;;;;;;;;;;4987542;28;20046;-84
2023/01/01 01:53:57;;;;;;;1999.90;999.90;;;;;;;;;;4983434;28;20141;-83
2023/01/01 01:56:26;;;;;;;1999.90;999.90;;;;;;;;;;4985449;28;20058;-83
2023/01/01 01:58:53;;;;;;;1999.90;999.90;;;;;;;;;;4983364;28;20074;-83
2023/01/01 02:01:20;;;;;;;1999.90;999.90;;;;;;;;;;4984620;28;20050;-84
2023/01/01 02:03:50;;;;;;;1999.90;999.90;;;;;;;;;;4983185;28;20093;-83
2023/01/01 02:06:17;;;;;;;1999.90;999.90;;;;;;;;;;4983891;28;20086;-83
2023/01/01 02:08:44;;;;;;;1999.90;999.90;;;;;;;;;;4983519;28;20082;-83
2023/01/01 02:11:12;;;;;;;1999.90;999.90;;;;;;;;;;4983321;28;20129;-82
2023/01/01 02:13:39;;;;;;;1999.90;999.90;;;;;;;;;;4983057;28;20077;-82
2023/01/01 02:16:08;;;;;;;1999.90;999.90;;;;;;;;;;4984262;28;20104;-84
2023/01/01 02:18:41;;;;;;;1999.90;999.90;;;;;;;;;;4984941;28;20074;-83
2023/01/01 02:21:11;;;;;;;1999.90;999.90;;;;;;;;;;4985627;28;20072;-83
2023/01/01 02:23:45;;;;;;;1999.90;999.90;;;;;;;;;;4982346;28;20082;-83
2023/01/01 02:26:37;;;;;;;1999.90;999.90;;;;;;;;;;4988305;28;20054;-85
2023/01/01 02:29:09;;;;;;;1999.90;999.90;;;;;;;;;;4985044;28;20061;-84
2023/01/01 02:31:39;;;;;;;1999.90;999.90;;;;;;;;;;4985183;28;20086;-84
2023/01/01 02:34:08;;;;;;;1999.90;999.90;;;;;;;;;;4982709;28;20153;-84
2023/01/01 02:36:38;;;;;;;1999.90;999.90;;;;;;;;;;4982364;28;20089;-84
2023/01/01 02:39:07;;;;;;;1999.90;999.90;;;;;;;;;;4981266;28;20078;-83
2023/01/01 02:41:36;;;;;;;1999.90;999.90;;;;;;;;;;4988058;28;20054;-85
2023/01/01 02:44:05;;;;;;;1999.90;999.90;;;;;;;;;;4981812;28;20096;-84
2023/01/01 02:46:32;;;;;;;1999.90;999.90;;;;;;;;;;4984026;28;20082;-84
2023/01/01 02:48:59;;;;;;;1999.90;999.90;;;;;;;;;;4987666;28;20129;-83
2023/01/01 02:51:30;;;;;;;1999.90;999.90;;;;;;;;;;4988025;28;20082;-84
2023/01/01 02:54:02;;;;;;;1999.90;999.90;;;;;;;;;;4983897;28;20070;-84
2023/01/01 02:56:35;;;;;;;1999.90;999.90;;;;;;;;;;4982189;28;20086;-84
2023/01/01 03:02:19;;;;;;;1999.90;999.90;;;;;;;;;;4984434;28;20051;-84
2023/01/01 03:04:53;;;;;;;1999.90;999.90;;;;;;;;;;4983516;28;20077;-84
2023/01/01 03:07:26;;;;;;;1999.90;999.90;;;;;;;;;;4986465;28;20509;-84
2023/01/01 03:09:56;;;;;;;1999.90;999.90;;;;;;;;;;4986208;28;20113;-84
2023/01/01 03:12:38;;;;;;;1999.90;999.90;;;;;;;;;;4983696;28;20050;-84
2023/01/01 03:15:09;;;;;;;1999.90;999.90;;;;;;;;;;4986400;28;20494;-85
2023/01/01 03:17:38;;;;;;;1999.90;999.90;;;;;;;;;;4982735;28;20085;-85
2023/01/01 03:20:10;;;;;;;1999.90;999.90;;;;;;;;;;4977161;28;20129;-84
2023/01/01 03:22:38;;;;;;;1999.90;999.90;;;;;;;;;;4984158;28;20078;-82
2023/01/01 03:25:08;;;;;;;1999.90;999.90;;;;;;;;;;4983791;28;20046;-84
2023/01/01 03:27:37;;;;;;;1999.90;999.90;;;;;;;;;;4984369;28;20050;-84
2023/01/01 03:30:09;;;;;;;1999.90;999.90;;;;;;;;;;4981726;28;20043;-85
2023/01/01 03:38:48;;;;;;;1999.90;999.90;;;;;;;;;;4980643;28;20145;-84
2023/01/01 03:41:19;;;;;;;1999.90;999.90;;;;;;;;;;4981454;28;20046;-84
2023/01/01 03:43:51;;;;;;;1999.90;999.90;;;;;;;;;;4983345;28;20054;-84
2023/01/01 03:46:21;;;;;;;1999.90;999.90;;;;;;;;;;4982760;28;20104;-85
2023/01/01 03:48:56;;;;;;;1999.90;999.90;;;;;;;;;;4984335;28;20105;-84
2023/01/01 03:51:27;;;;;;;1999.90;999.90;;;;;;;;;;4980862;28;20121;-83
2023/01/01 03:53:57;;;;;;;1999.90;999.90;;;;;;;;;;4979448;28;20136;-84
2023/01/01 03:56:30;;;;;;;1999.90;999.90;;;;;;;;;;4982742;28;20074;-84
2023/01/01 03:59:01;;;;;;;1999.90;999.90;;;;;;;;;;4983714;28;20126;-84
2023/01/01 04:01:33;;;;;;;1999.90;999.90;;;;;;;;;;4981686;28;20497;-84
2023/01/01 04:04:01;;;;;;;1999.90;999.90;;;;;;;;;;4981903;28;20051;-84
2023/01/01 04:06:28;;;;;;;1999.90;999.90;;;;;;;;;;4980786;28;20055;-84
2023/01/01 04:08:57;;;;;;;1999.90;999.90;;;;;;;;;;4981823;28;20077;-84
2023/01/01 04:14:12;;;;;;;1999.90;999.90;;;;;;;;;;4985844;28;20053;-84
2023/01/01 04:16:40;;;;;;;1999.90;999.90;;;;;;;;;;4988309;28;20241;-84
2023/01/01 04:19:07;;;;;;;1999.90;999.90;;;;;;;;;;4980738;28;20134;-84
2023/01/01 04:21:34;;;;;;;1999.90;999.90;;;;;;;;;;4984845;28;20129;-84
2023/01/01 04:24:00;;;;;;;1999.90;999.90;;;;;;;;;;4984045;28;20078;-84
2023/01/01 04:26:27;;;;;;;1999.90;999.90;;;;;;;;;;4993188;28;20129;-84
2023/01/01 04:28:53;;;;;;;1999.90;999.90;;;;;;;;;;4986157;28;20081;-83
2023/01/01 04:31:20;;;;;;;1999.90;999.90;;;;;;;;;;4987605;28;20077;-84
2023/01/01 04:33:48;;;;;;;1999.90;999.90;;;;;;;;;;4986779;28;20069;-85
2023/01/01 04:36:14;;;;;;;1999.90;999.90;;;;;;;;;;4986738;28;20089;-85
2023/01/01 04:38:41;;;;;;;1999.90;999.90;;;;;;;;;;4985996;28;20089;-84
2023/01/01 04:41:09;;;;;;;1999.90;999.90;;;;;;;;;;4988458;28;20153;-84
2023/01/01 04:43:36;;;;;;;1999.90;999.90;;;;;;;;;;4987391;28;20707;-84
2023/01/01 04:46:03;;;;;;;1999.90;999.90;;;;;;;;;;4981977;28;20153;-84
2023/01/01 04:48:31;;;;;;;1999.90;999.90;;;;;;;;;;4986109;28;20504;-83
2023/01/01 04:51:00;;;;;;;1999.90;999.90;;;;;;;;;;4983538;28;20145;-84
2023/01/01 04:53:29;;;;;;;1999.90;999.90;;;;;;;;;;4986893;28;20085;-85
2023/01/01 04:55:56;;;;;;;1999.90;999.90;;;;;;;;;;4989948;28;20186;-84
2023/01/01 04:58:23;;;;;;;1999.90;999.90;;;;;;;;;;4989803;28;20081;-84
2023/01/01 05:00:50;;;;;;;1999.90;999.90;;;;;;;;;;4989621;28;20138;-84
2023/01/01 05:03:16;;;;;;;1999.90;999.90;;;;;;;;;;4985042;28;20439;-84
2023/01/01 05:05:43;;;;;;;1999.90;999.90;;;;;;;;;;4987454;28;20125;-84
2023/01/01 05:08:11;;;;;;;1999.90;999.90;;;;;;;;;;4981316;28;20074;-85
2023/01/01 05:10:37;;;;;;;1999.90;999.90;;;;;;;;;;4987836;28;20050;-84
2023/01/01 05:13:06;;;;;;;1999.90;999.90;;;;;;;;;;4983825;28;20077;-84
2023/01/01 05:15:35;;;;;;;1999.90;999.90;;;;;;;;;;4985296;28;20092;-84
2023/01/01 05:18:02;;;;;;;1999.90;999.90;;;;;;;;;;4983751;28;20553;-84
2023/01/01 05:20:28;;;;;;;1999.90;999.90;;;;;;;;;;4984897;28;20134;-84
2023/01/01 05:22:55;;;;;;;1999.90;999.90;;;;;;;;;;4980746;28;20559;-84
2023/01/01 05:25:23;;;;;;;1999.90;999.90;;;;;;;;;;4984743;28;20078;-84
2023/01/01 05:27:49;;;;;;;1999.90;999.90;;;;;;;;;;4982785;28;20134;-84
2023/01/01 05:30:16;;;;;;;1999.90;999.90;;;;;;;;;;4988232;28;20074;-84
2023/01/01 05:32:42;;;;;;;1999.90;999.90;;;;;;;;;;4984227;28;20140;-85
2023/01/01 05:35:09;;;;;;;1999.90;999.90;;;;;;;;;;4984481;28;20157;-84
2023/01/01 05:37:36;;;;;;;1999.90;999.90;;;;;;;;;;4990169;28;20481;-84
2023/01/01 05:40:02;;;;;;;1999.90;999.90;;;;;;;;;;4987128;28;20125;-84
2023/01/01 05:42:31;;;;;;;1999.90;999.90;;;;;;;;;;4985755;28;20101;-83
2023/01/01 05:44:57;;;;;;;1999.90;999.90;;;;;;;;;;4982453;28;20086;-84
2023/01/01 05:47:24;;;;;;;1999.90;999.90;;;;;;;;;;4987554;28;20137;-84
2023/01/01 05:49:51;;;;;;;1999.90;999.90;;;;;;;;;;4984958;28;20125;-84
2023/01/01 05:52:17;;;;;;;1999.90;999.90;;;;;;;;;;4988970;28;20046;-85
2023/01/01 05:54:44;;;;;;;1999.90;999.90;;;;;;;;;;4985613;28;20156;-84
2023/01/01 05:57:11;;;;;;;1999.90;999.90;;;;;;;;;;4988681;28;20082;-84
2023/01/01 05:59:38;;;;;;;1999.90;999.90;;;;;;;;;;4985721;28;20137;-84
2023/01/01 06:02:05;;;;;;;1999.90;999.90;;;;;;;;;;4984918;28;20746;-84
2023/01/01 06:04:31;;;;;;;1999.90;999.90;;;;;;;;;;4983588;28;20130;-84
2023/01/01 06:06:58;;;;;;;1999.90;999.90;;;;;;;;;;4982642;28;20510;-84
2023/01/01 06:09:24;;;;;;;1999.90;999.90;;;;;;;;;;4984739;28;20105;-85
2023/01/01 06:11:51;;;;;;;1999.90;999.90;;;;;;;;;;4981801;28;20125;-84
2023/01/01 06:14:17;;;;;;;1999.90;999.90;;;;;;;;;;4985602;28;20117;-85
2023/01/01 06:16:45;;;;;;;1999.90;999.90;;;;;;;;;;4984033;28;20129;-84
2023/01/01 06:19:12;;;;;;;1999.90;999.90;;;;;;;;;;4984894;28;20137;-84
2023/01/01 06:21:38;;;;;;;1999.90;999.90;;;;;;;;;;4985859;28;20070;-84
2023/01/01 06:24:06;;;;;;;1999.90;999.90;;;;;;;;;;4985795;28;20541;-84
2023/01/01 06:26:33;;;;;;;1999.90;999.90;;;;;;;;;;4982280;28;20042;-84
2023/01/01 06:29:01;;;;;;;1999.90;999.90;;;;;;;;;;4985252;28;20084;-84
2023/01/01 06:31:29;;;;;;;1999.90;999.90;;;;;;;;;;4984759;28;20050;-85
2023/01/01 06:33:57;;;;;;;1999.90;999.90;;;;;;;;;;4987876;28;20120;-84
2023/01/01 06:36:25;;;;;;;1999.90;999.90;;;;;;;;;;4986167;28;20343;-84
2023/01/01 06:38:53;;;;;;;1999.90;999.90;;;;;;;;;;4982024;28;20696;-84
2023/01/01 06:41:20;;;;;;;1999.90;999.90;;;;;;;;;;4986792;28;20038;-83
2023/01/01 06:43:47;;;;;;;1999.90;999.90;;;;;;;;;;4981151;28;20070;-84
2023/01/01 06:46:17;;;;;;;1999.90;999.90;;;;;;;;;;4985174;28;20473;-84
2023/01/01 06:48:44;;;;;;;1999.90;999.90;;;;;;;;;;4983799;28;20468;-85
2023/01/01 06:51:13;;;;;;;1999.90;999.90;;;;;;;;;;4982286;28;20082;-84
2023/01/01 06:53:40;;;;;;;1999.90;999.90;;;;;;;;;;4984462;28;20181;-84
2023/01/01 06:56:07;;;;;;;1999.90;999.90;;;;;;;;;;4981599;28;20077;-84
2023/01/01 06:58:34;;;;;;;1999.90;999.90;;;;;;;;;;4981734;28;20089;-85
2023/01/01 07:01:04;;;;;;;1999.90;999.90;;;;;;;;;;4984728;28;20409;-84
2023/01/01 07:03:30;;;;;;;1999.90;999.90;;;;;;;;;;4982343;28;20125;-84
2023/01/01 07:05:57;;;;;;;1999.90;999.90;;;;;;;;;;4984694;28;20138;-84
2023/01/01 07:08:25;;;;;;;1999.90;999.90;;;;;;;;;;4980810;28;20133;-84
2023/01/01 07:10:51;;;;;;;1999.90;999.90;;;;;;;;;;4981982;28;20125;-84
2023/01/01 07:13:18;;;;;;;1999.90;999.90;;;;;;;;;;4983667;28;20074;-84
2023/01/01 07:15:45;;;;;;;1999.90;999.90;;;;;;;;;;4984246;28;20125;-84
2023/01/01 07:18:11;;;;;;;1999.90;999.90;;;;;;;;;;4989052;28;20081;-83
2023/01/01 07:20:38;;;;;;;1999.90;999.90;;;;;;;;;;4981594;28;20158;-84
2023/01/01 07:23:04;;;;;;;1999.90;999.90;;;;;;;;;;4987052;28;20161;-84
2023/01/01 07:25:33;;;;;;;1999.90;999.90;;;;;;;;;;4981114;28;20086;-84
2023/01/01 07:27:59;;;;;;;1999.90;999.90;;;;;;;;;;4983724;28;20134;-84
2023/01/01 07:30:26;;;;;;;1999.90;999.90;;;;;;;;;;4982921;28;20066;-84
2023/01/01 07:32:54;;;;;;;1999.90;999.90;;;;;;;;;;4983299;28;20079;-83
2023/01/01 07:35:21;;;;;;;1999.90;999.90;;;;;;;;;;4979004;28;20148;-84
2023/01/01 07:37:48;;;;;;;1999.90;999.90;;;;;;;;;;4980836;28;20050;-84
2023/01/01 07:40:15;;;;;;;1999.90;999.90;;;;;;;;;;4981428;28;20052;-84
2023/01/01 07:42:43;;;;;;;1999.90;999.90;;;;;;;;;;4980698;28;20396;-84
2023/01/01 07:45:11;;;;;;;1999.90;999.90;;;;;;;;;;4979216;28;20451;-84
2023/01/01 07:47:38;;;;;;;1999.90;999.90;;;;;;;;;;4986968;28;20522;-84
2023/01/01 07:50:05;;;;;;;1999.90;999.90;;;;;;;;;;4983473;28;20047;-84
2023/01/01 07:52:32;;;;;;;1999.90;999.90;;;;;;;;;;4978475;28;20078;-84
2023/01/01 07:54:59;;;;;;;1999.90;999.90;;;;;;;;;;4981633;28;20342;-84
2023/01/01 07:57:26;;;;;;;1999.90;999.90;;;;;;;;;;4985229;28;20075;-84
2023/01/01 07:59:54;;;;;;;1999.90;999.90;;;;;;;;;;4982855;28;20081;-83
2023/01/01 08:02:21;;;;;;;1999.90;999.90;;;;;;;;;;4984235;28;20133;-84
2023/01/01 08:04:48;;;;;;;1999.90;999.90;;;;;;;;;;4984648;28;20590;-85
2023/01/01 08:07:14;;;;;;;1999.90;999.90;;;;;;;;;;4988690;28;20088;-84
2023/01/01 08:09:41;;;;;;;1999.90;999.90;;;;;;;;;;4983623;28;20071;-84
2023/01/01 08:12:08;;;;;;;1999.90;999.90;;;;;;;;;;4981018;28;20077;-84
2023/01/01 08:14:35;;;;;;;1999.90;999.90;;;;;;;;;;4983001;28;20476;-84
2023/01/01 08:17:03;;;;;;;1999.90;999.90;;;;;;;;;;4984137;28;20135;-84
2023/01/01 08:19:29;;;;;;;1999.90;999.90;;;;;;;;;;4980833;28;20130;-84
2023/01/01 08:21:56;;;;;;;1999.90;999.90;;;;;;;;;;4982692;28;20084;-84
2023/01/01 08:24:23;;;;;;;1999.90;999.90;;;;;;;;;;4983274;28;20085;-84
2023/01/01 08:26:50;;;;;;;1999.90;999.90;;;;;;;;;;4982872;28;20134;-84
2023/01/01 08:29:17;;;;;;;1999.90;999.90;;;;;;;;;;4982754;28;20078;-84
2023/01/01 08:31:43;;;;;;;1999.90;999.90;;;;;;;;;;4981392;28;20590;-84
2023/01/01 08:34:12;;;;;;;1999.90;999.90;;;;;;;;;;4980597;28;20078;-84
2023/01/01 08:36:40;;;;;;;1999.90;999.90;;;;;;;;;;4981575;28;20142;-84
2023/01/01 08:39:06;;;;;;;1999.90;999.90;;;;;;;;;;4981753;28;20134;-84
2023/01/01 08:41:33;;;;;;;1999.90;999.90;;;;;;;;;;4983257;28;20149;-83
2023/01/01 08:44:00;;;;;;;1999.90;999.90;;;;;;;;;;4983512;28;20102;-84
2023/01/01 08:46:27;;;;;;;1999.90;999.90;;;;;;;;;;4980773;28;20134;-84
2023/01/01 08:48:53;;;;;;;1999.90;999.90;;;;;;;;;;4981838;28;20140;-84
2023/01/01 08:51:22;;;;;;;1999.90;999.90;;;;;;;;;;4983360;28;20070;-84
2023/01/01 08:53:49;;;;;;;1999.90;999.90;;;;;;;;;;4979391;28;20137;-84
2023/01/01 08:56:15;;;;;;;1999.90;999.90;;;;;;;;;;4982787;28;20165;-84
2023/01/01 08:58:43;;;;;;;1999.90;999.90;;;;;;;;;;4983055;28;20119;-84
2023/01/01 09:01:10;;;;;;;1999.90;999.90;;;;;;;;;;4983266;28;20080;-84
2023/01/01 09:03:37;;;;;;;1999.90;999.90;;;;;;;;;;4982475;28;20145;-84
2023/01/01 09:06:04;;;;;;;1999.90;999.90;;;;;;;;;;4986995;28;20145;-84
2023/01/01 09:08:33;;;;;;;1999.90;999.90;;;;;;;;;;4990791;28;20054;-84
2023/01/01 09:11:01;;;;;;;1999.90;999.90;;;;;;;;;;4984897;28;20134;-84
2023/01/01 09:13:28;;;;;;;1999.90;999.90;;;;;;;;;;4985261;28;20081;-84
2023/01/01 09:15:55;;;;;;;1999.90;999.90;;;;;;;;;;4984646;28;20073;-84
2023/01/01 09:18:22;;;;;;;1999.90;999.90;;;;;;;;;;4985130;28;20074;-84
2023/01/01 09:20:49;;;;;;;1999.90;999.90;;;;;;;;;;4983714;28;20139;-84
2023/01/01 09:23:16;;;;;;;1999.90;999.90;;;;;;;;;;4982458;28;20133;-84
2023/01/01 09:25:45;;;;;;;1999.90;999.90;;;;;;;;;;4985471;28;20089;-84
2023/01/01 09:28:13;;;;;;;1999.90;999.90;;;;;;;;;;4979748;28;20074;-83
2023/01/01 09:30:40;;;;;;;1999.90;999.90;;;;;;;;;;4987170;28;20078;-84
2023/01/01 09:33:07;;;;;;;1999.90;999.90;;;;;;;;;;4990080;28;20058;-84
2023/01/01 09:35:35;;;;;;;1999.90;999.90;;;;;;;;;;4982347;28;20129;-84
2023/01/01 09:38:03;;;;;;;1999.90;999.90;;;;;;;;;;4987695;28;20549;-84
2023/01/01 09:40:43;;;;;;;1999.90;999.90;;;;;;;;;;4983067;28;20085;-84
2023/01/01 09:43:15;;;;;;;1999.90;999.90;;;;;;;;;;4983674;28;20054;-84
2023/01/01 09:45:54;;;;;;;1999.90;999.90;;;;;;;;;;4984630;28;20149;-84
2023/01/01 09:48:21;;;;;;;1999.90;999.90;;;;;;;;;;4981158;28;20129;-84
2023/01/01 09:50:48;;;;;;;1999.90;999.90;;;;;;;;;;4987507;28;20493;-84
2023/01/01 09:53:19;;;;;;;1999.90;999.90;;;;;;;;;;4989296;28;20141;-84
2023/01/01 09:55:49;;;;;;;1999.90;999.90;;;;;;;;;;4986277;28;20519;-84
2023/01/01 09:58:20;;;;;;;1999.90;999.90;;;;;;;;;;4985207;28;20086;-84
2023/01/01 10:00:48;;;;;;;1999.90;999.90;;;;;;;;;;4980031;28;20086;-84
2023/01/01 10:03:26;;;;;;;1999.90;999.90;;;;;;;;;;4983832;28;20129;-83
2023/01/01 10:05:57;;;;;;;1999.90;999.90;;;;;;;;;;4985786;28;20475;-84
2023/01/01 10:08:31;;;;;;;1999.90;999.90;;;;;;;;;;4987008;28;20082;-83
2023/01/01 10:11:05;;;;;;;1999.90;999.90;;;;;;;;;;4982158;28;20152;-83
2023/01/01 10:13:38;;;;;;;1999.90;999.90;;;;;;;;;;4980526;28;20070;-84
2023/01/01 10:16:10;;;;;;;1999.90;999.90;;;;;;;;;;4983215;28;20129;-84
2023/01/01 10:18:37;;;;;;;1999.90;999.90;;;;;;;;;;4982223;28;20486;-84
2023/01/01 10:21:07;;;;;;;1999.90;999.90;;;;;;;;;;4984039;28;20089;-83
2023/01/01 10:23:39;;;;;;;1999.90;999.90;;;;;;;;;;4982654;28;20112;-83
2023/01/01 10:26:09;;;;;;;1999.90;999.90;;;;;;;;;;4980868;28;20105;-83
2023/01/01 10:28:42;;;;;;;1999.90;999.90;;;;;;;;;;4987354;28;20168;-84
2023/01/01 10:31:15;;;;;;;1999.90;999.90;;;;;;;;;;4985583;28;20058;-84
2023/01/01 10:33:41;;;;;;;1999.90;999.90;;;;;;;;;;4986509;28;20078;-84
2023/01/01 10:36:11;;;;;;;1999.90;999.90;;;;;;;;;;4983060;28;20137;-84
2023/01/01 10:38:37;;;;;;;1999.90;999.90;;;;;;;;;;4982303;28;20130;-83
2023/01/01 10:41:07;;;;;;;1999.90;999.90;;;;;;;;;;4981210;28;20129;-83
2023/01/01 10:43:34;;;;;;;1999.90;999.90;;;;;;;;;;4983443;28;20047;-84
2023/01/01 10:46:03;;;;;;;1999.90;999.90;;;;;;;;;;4982198;28;20126;-84
2023/01/01 10:48:31;;;;;;;1999.90;999.90;;;;;;;;;;4983186;28;20055;-84
2023/01/01 10:50:59;;;;;;;1999.90;999.90;;;;;;;;;;4990198;28;20086;-85
2023/01/01 10:53:29;;;;;;;1999.90;999.90;;;;;;;;;;4986737;28;20148;-85
2023/01/01 10:56:07;;;;;;;1999.90;999.90;;;;;;;;;;4981851;28;20341;-86
2023/01/01 10:58:37;;;;;;;1999.90;999.90;;;;;;;;;;4982695;28;20141;-85
2023/01/01 11:01:07;;;;;;;1999.90;999.90;;;;;;;;;;4984429;28;20113;-86
2023/01/01 11:32:58;;;;;;;1999.90;999.90;;;;;;;;;;5025468;23;20054;-65
2023/01/01 11:35:27;;;;;;;1999.90;999.90;;;;;;;;;;5014432;28;20633;-68
2023/01/01 11:37:54;;;;;;;1999.90;999.90;;;;;;;;;;5013356;28;20473;-65
2023/01/01 11:40:23;;;;;;;1999.90;999.90;;;;;;;;;;5013578;28;20070;-69
2023/01/01 11:42:51;;;;;;;1999.90;999.90;;;;;;;;;;5013677;28;20084;-67
2023/01/01 11:45:20;;;;;;;1999.90;999.90;;;;;;;;;;5012704;28;20480;-66
2023/01/01 11:47:52;;;;;;;1999.90;999.90;;;;;;;;;;5013270;28;20149;-68
2023/01/01 11:50:25;;;;;;;1999.90;999.90;;;;;;;;;;5014230;28;20144;-67
2023/01/01 11:52:52;;;;;;;1999.90;999.90;;;;;;;;;;5013820;28;20109;-67
2023/01/01 11:55:24;;;;;;;1999.90;999.90;;;;;;;;;;5011679;28;20136;-67
2023/01/01 11:57:57;;;;;;;1999.90;999.90;;;;;;;;;;5013137;28;20144;-67
2023/01/01 12:00:24;;;;;;;1999.90;999.90;;;;;;;;;;5013446;28;20424;-67
2023/01/01 12:02:55;;;;;;;1999.90;999.90;;;;;;;;;;5013900;28;20046;-66
2023/01/01 12:05:24;;;;;;;1999.90;999.90;;;;;;;;;;5014498;28;20540;-67
2023/01/01 12:07:52;;;;;;;1999.90;999.90;;;;;;;;;;5013208;28;20081;-66
2023/01/01 12:10:22;;;;;;;1999.90;999.90;;;;;;;;;;5013772;28;20757;-67
2023/01/01 12:12:51;;;;;;;1999.90;999.90;;;;;;;;;;5010850;28;20145;-66
2023/01/01 12:15:22;;;;;;;1999.90;999.90;;;;;;;;;;5014000;28;20056;-66
2023/01/01 12:17:52;;;;;;;1999.90;999.90;;;;;;;;;;5011606;28;20141;-66
2023/01/01 12:20:25;;;;;;;1999.90;999.90;;;;;;;;;;5012468;28;20516;-66
2023/01/01 12:22:55;;;;;;;1999.90;999.90;;;;;;;;;;5010309;28;20077;-65
2023/01/01 12:25:22;;;;;;;1999.90;999.90;;;;;;;;;;5010627;28;20064;-65
2023/01/01 12:27:59;;;;;;;1999.90;999.90;;;;;;;;;;5012259;28;20054;-65
2023/01/01 12:30:30;;;;;;;1999.90;999.90;;;;;;;;;;5010920;28;20049;-68
2023/01/01 12:33:27;;;;;;;1999.90;999.90;;;;;;;;;;5010611;28;20112;-65
2023/01/01 12:36:03;;;;;;;1999.90;999.90;;;;;;;;;;5012471;28;20434;-70
2023/01/01 12:38:41;;;;;;;1999.90;999.90;;;;;;;;;;5011773;28;20046;-67
2023/01/01 12:41:12;;;;;;;1999.90;999.90;;;;;;;;;;5014163;28;20085;-66
2023/01/01 12:43:43;;;;;;;1999.90;999.90;;;;;;;;;;5016079;28;20093;-66
2023/01/01 12:46:18;;;;;;;1999.90;999.90;;;;;;;;;;5013052;28;20102;-66
2023/01/01 12:49:10;;;;;;;1999.90;999.90;;;;;;;;;;5012446;28;20176;-66
2023/01/01 12:51:44;;;;;;;1999.90;999.90;;;;;;;;;;5013934;28;20099;-66
2023/01/01 12:54:36;;;;;;;1999.90;999.90;;;;;;;;;;5012088;28;20137;-67
2023/01/01 12:57:06;;;;;;;1999.90;999.90;;;;;;;;;;5012575;28;20137;-63
2023/01/01 12:59:36;;;;;;;1999.90;999.90;;;;;;;;;;5012609;28;20129;-66
2023/01/01 13:02:12;;;;;;;1999.90;999.90;;;;;;;;;;5012499;28;20141;-66
2023/01/01 13:04:38;;;;;;;1999.90;999.90;;;;;;;;;;5011844;28;20058;-66
2023/01/01 13:07:09;;;;;;;1999.90;999.90;;;;;;;;;;5011947;28;20148;-66
2023/01/01 13:09:38;;;;;;;1999.90;999.90;;;;;;;;;;5011569;28;20171;-67
2023/01/01 13:12:07;;;;;;;1999.90;999.90;;;;;;;;;;5012298;28;20580;-66
2023/01/01 13:14:38;;;;;;;1999.90;999.90;;;;;;;;;;5012057;28;20137;-66
2023/01/01 13:17:04;;;;;;;1999.90;999.90;;;;;;;;;;5011797;28;20136;-67
2023/01/01 13:19:32;;;;;;;1999.90;999.90;;;;;;;;;;5010267;28;20144;-66
2023/01/01 13:22:00;;;;;;;1999.90;999.90;;;;;;;;;;5010258;28;20144;-65
2023/01/01 13:24:28;;;;;;;1999.90;999.90;;;;;;;;;;5011336;28;20136;-67
2023/01/01 13:26:55;;;;;;;1999.90;999.90;;;;;;;;;;5012953;28;20049;-67
2023/01/01 13:29:44;;;;;;;1999.90;999.90;;;;;;;;;;5012147;28;20720;-66
2023/01/01 13:32:12;;;;;;;1999.90;999.90;;;;;;;;;;5011317;28;20460;-66
2023/01/01 13:35:04;;;;;;;1999.90;999.90;;;;;;;;;;5011622;28;20568;-67
2023/01/01 13:37:45;;;;;;;1999.90;999.90;;;;;;;;;;5011589;28;20049;-66
2023/01/01 13:40:39;;;;;;;1999.90;999.90;;;;;;;;;;5009618;28;20088;-67
2023/01/01 13:43:18;;;;;;;1999.90;999.90;;;;;;;;;;5010658;28;20089;-66
2023/01/01 13:45:51;;;;;;;1999.90;999.90;;;;;;;;;;5009076;28;20763;-64
2023/01/01 13:48:30;;;;;;;1999.90;999.90;;;;;;;;;;5008980;28;20104;-67
2023/01/01 13:51:04;;;;;;;1999.90;999.90;;;;;;;;;;5009993;28;20081;-66
2023/01/01 13:53:43;;;;;;;1999.90;999.90;;;;;;;;;;5007139;28;20468;-66
2023/01/01 13:56:25;;;;;;;1999.90;999.90;;;;;;;;;;5008405;28;20061;-66
2023/01/01 13:59:02;;;;;;;1999.90;999.90;;;;;;;;;;5009338;28;20053;-64
2023/01/01 14:01:41;;;;;;;1999.90;999.90;;;;;;;;;;5010368;28;20141;-66
2023/01/01 14:04:19;;;;;;;1999.90;999.90;;;;;;;;;;5008695;28;20142;-69
2023/01/01 14:06:50;;;;;;;1999.90;999.90;;;;;;;;;;5012839;28;20153;-69
2023/01/01 14:09:19;;;;;;;1999.90;999.90;;;;;;;;;;5010919;28;20119;-69
2023/01/01 14:11:47;;;;;;;1999.90;999.90;;;;;;;;;;5013247;28;20505;-64
2023/01/01 14:14:27;;;;;;;1999.90;999.90;;;;;;;;;;5009793;28;20042;-63
2023/01/01 14:16:55;;;;;;;1999.90;999.90;;;;;;;;;;5010436;28;20064;-67
2023/01/01 14:19:22;;;;;;;1999.90;999.90;;;;;;;;;;5011910;28;20445;-68
2023/01/01 14:21:49;;;;;;;1999.90;999.90;;;;;;;;;;5012381;28;20077;-67
2023/01/01 14:24:18;;;;;;;1999.90;999.90;;;;;;;;;;5013455;28;20141;-67
2023/01/01 14:26:44;;;;;;;1999.90;999.90;;;;;;;;;;5012800;28;20136;-67
2023/01/01 14:29:18;;;;;;;1999.90;999.90;;;;;;;;;;5010693;28;20080;-67
2023/01/01 14:31:46;;;;;;;1999.90;999.90;;;;;;;;;;5014449;28;20082;-68
2023/01/01 14:34:14;;;;;;;1999.90;999.90;;;;;;;;;;5011563;28;20100;-68